New Braunfels, TX (78132)

6:36 AM CST on December 05, 2016 (GMT -0600)
River Road nr 1st Crossing | | Change Station

Elev 672 ft 29.75 °N, 98.15 °W | Updated 1 minute ago

Overcast
Overcast
48.6 °F
Feels Like 49 °F
N
3.0
Wind Variable Wind from NNW
Gusts 7.0 mph

Today
High -- | Low -- °F
--% Chance of Precip.
Yesterday
High -- | Low -- °F
Precip. -- in
Pressure 29.84 in
Visibility 10.0 miles
Clouds Overcast 1500 ft
Windchill 49 °F
Dew Point 49 °F
Humidity 100%
Rainfall 0.15 in
Snow Depth Not available.
7:13 AM 5:33 PM
Waxing Crescent, 31% visible
SPECI KBAZ 051213Z AUTO 04010KT 10SM OVC015 09/08 A2984 RMK AO2 T00940078
Pressure 29.84 in
Visibility 10.0 miles
Clouds Overcast 1500 ft
Windchill 49 °F
Dew Point 49 °F
Humidity 100%
Rainfall 0.15 in
Snow Depth Not available.
7:13 AM 5:33 PM
Waxing Crescent, 31% visible
SPECI KBAZ 051213Z AUTO 04010KT 10SM OVC015 09/08 A2984 RMK AO2 T00940078

10-Day Weather Forecast

Almanac

Astronomy

Dec. 05, 2016 Rise Set
Actual Time
Civil Twilight
Nautical Twilight
Astronomical Twilight
Moon
Length of Visible Light
Length of Day
Tomorrow will be .
, % of the Moon is Illuminated

Today's Extremes

State Highs State Lows

Community

WunderPhotos

Upload Photos

1,955,777 photos uploaded!

WunderBlog® & News

Nearby

Air Quality

  Air Quality AQ Index Pollutant
Not available.

Snow Depth

Station Depth Elevation

Earthquake Activity

City Distance Mag. Time & Date
Minimum magnitude displayed is 2.5.

Coastal Water Temperatures

Place Temperature

Stations

Nearby Weather Stations

Station Location Temp. Windchill Dew Point Humidity Wind Precip. Elev Updated Type
                   

Watches & Warnings

There are currently no watches in effect.